Aviation Digital Data Service (ADDS)

Output produced by METARs form (1706 UTC 28 September 2016)
found at http://www.aviationweather.gov/adds/metars/
 
KBFD 281653Z AUTO 13015G22KT 10SM SCT065 19/09 A3004 RMK AO2 SLP171 T01940094
KBFD 281553Z AUTO 14013G24KT 10SM OVC055 17/09 A3004 RMK AO2 SLP172 T01720094
KBFD 281453Z AUTO 14013G21KT 10SM CLR 17/11 A3004 RMK AO2 SLP169 T01670106 51004
KBFD 281353Z AUTO 13009KT 10SM BKN050 13/08 A3003 RMK AO2 SLP171 T01330078
KBFD 281253Z AUTO 13004KT 10SM FEW065 12/08 A3002 RMK AO2 SLP169 T01170078
KBFD 281153Z AUTO 14003KT 10SM CLR 05/05 A3002 RMK AO2 SLP172 T00500050 10067 20033 51010
KBFD 281053Z AUTO 00000KT 9SM CLR 04/04 A3001 RMK AO2 SLP167 T00440044
KBFD 280953Z AUTO 15003KT 10SM CLR 04/04 A3000 RMK AO2 SLP160 T00390039
KBFD 280853Z AUTO 14003KT 10SM CLR 05/05 A2999 RMK AO2 SLP154 T00500050 51007
KBFD 280753Z AUTO 14004KT 10SM CLR 04/04 A2998 RMK AO2 SLP152 T00440044
KBFD 280653Z AUTO 13004KT 10SM CLR 06/04 A2998 RMK AO2 SLP148 T00610044
KBFD 280553Z AUTO 14004KT 10SM CLR 06/05 A2997 RMK AO2 SLP146 T00560050 10094 20056 51005
KBFD 280453Z AUTO 14003KT 10SM CLR 06/05 A2996 RMK AO2 SLP144 T00610050 401830061
KBFD 280353Z AUTO 14004KT 10SM BKN100 07/06 A2996 RMK AO2 SLP145 T00670056
KBFD 280253Z AUTO 13004KT 10SM CLR 07/06 A2995 RMK AO2 SLP142 T00720056 51011
KBFD 280153Z AUTO 13004KT 10SM CLR 07/06 A2995 RMK AO2 SLP143 T00720061
KBFD 280053Z AUTO 12004KT 10SM FEW085 08/07 A2993 RMK AO2 SLP138 T00780067
KBFD 272353Z AUTO 13003KT 10SM CLR 09/07 A2992 RMK AO2 SLP132 T00940072 10183 20094 53013
KBFD 272253Z AUTO 14003KT 10SM CLR 13/07 A2990 RMK AO2 SLP124 T01280067
KBFD 272153Z AUTO 21003KT 10SM FEW070 17/03 A2989 RMK AO2 SLP116 T01720033
KBFD 272053Z AUTO VRB06KT 10SM SCT070 18/03 A2987 RMK AO2 SLP111 T01780028 55005
KBFD 271953Z AUTO 21009G15KT 10SM FEW070 18/02 A2987 RMK AO2 SLP110 T01780022
KBFD 271853Z AUTO VRB05G18KT 10SM FEW070 18/03 A2988 RMK AO2 SLP112 T01780028
KBFD 271753Z AUTO VRB06G16KT 10SM CLR 18/03 A2989 RMK AO2 SLP116 T01780028 10178 20094 58014
KBFD 271653Z AUTO 21011G16KT 10SM CLR 17/03 A2991 RMK AO2 SLP125 T01670033
KBFD 271553Z AUTO 25010G19KT 10SM CLR 16/04 A2993 RMK AO2 SLP130 T01560044
KBFD 271453Z AUTO VRB04KT 10SM CLR 14/09 A2994 RMK AO2 SLP132 T01390094 58003
KBFD 271353Z AUTO 20009KT 10SM FEW007 12/10 A2994 RMK AO2 SLP135 T01170100
KBFD 271338Z AUTO VRB05KT 10SM SCT007 11/11 A2994 RMK AO2 T01110106
KBFD 271253Z AUTO 21008KT 8SM OVC006 10/09 A2994 RMK AO2 SLP138 T01000094
KBFD 271233Z AUTO 20007KT 7SM BKN006 10/09 A2995 RMK AO2 T01000094
KBFD 271215Z AUTO 21006KT 8SM FEW006 09/09 A2995 RMK AO2 T00940094
KBFD 271153Z AUTO 22004KT 8SM CLR 09/09 A2994 RMK AO2 SLP138 70020 T00940089 10111 20089 53001
KBFD 271053Z AUTO 21003KT 10SM CLR 09/09 A2994 RMK AO2 SLP136 T00940089
KBFD 270953Z AUTO VRB04KT 9SM CLR 09/09 A2994 RMK AO2 SLP134 T00890089
KBFD 270853Z AUTO 21004KT 10SM CLR 09/09 A2994 RMK AO2 SLP134 T00940094 56008
KBFD 270753Z AUTO 21005KT 10SM CLR 10/10 A2994 RMK AO2 SLP133 T01000100
KBFD 270653Z AUTO 00000KT 10SM CLR 11/10 A2996 RMK AO2 SLP138 T01060100
KBFD 270553Z AUTO 23003KT 10SM FEW006 11/11 A2997 RMK AO2 SLP140 60000 T01110111 10150 20100 55002